Latest Weather Observations for Pirlangimpi

IDD60901

Issued at 7:51 pm CST Sunday 25 January 2015 (issued every 10 minutes, with the page automatically refreshed every 10 minutes)

About weather observations | Map of Darwin area stations | Latest observations for Darwin area | Other Formats
Station Details ID: 014142 Name: PIRLANGIMPI AIRPORT Lat: -11.40 Lon: 130.42 Height: 18.3 m
Data from the previous 72 hours. | See also: Recent months at Pirlangimpi
Date/Time
CST
Tmp

°C
App
Tmp
°C
Dew
Point
°C
Rel
Hum
%
Delta-T

°C
Wind Press
QNH
hPa
Press
MSL
hPa
Rain
since
9 am
mm
Dir
 
Spd
km/h
Gust
km/h
Spd
kts
Gust
kts
25/07:30pm 25.4 31.7 24.7 96 0.5 CALM 0 0 0 0 1008.1 1008.0 52.8
25/07:00pm 25.8 32.1 25.3 97 0.3 NE 2 2 1 1 1008.2 1008.1 52.8
25/06:30pm 26.0 32.0 25.5 97 0.4 ENE 4 9 2 5 1007.8 1007.7 52.8
25/06:00pm 25.4 30.7 24.9 97 0.3 SE 6 9 3 5 1007.7 1007.6 52.8
25/05:30pm 25.1 30.0 24.6 97 0.3 N 7 11 4 6 1007.4 1007.3 52.6
25/05:00pm 24.5 29.2 24.0 97 0.3 NNE 6 11 3 6 1007.6 1007.5 46.6
25/04:30pm 24.4 28.1 23.9 97 0.3 N 11 19 6 10 1007.6 1007.5 43.8
25/04:00pm 24.3 29.0 23.4 95 0.6 NNE 4 9 2 5 1008.7 1008.6 14.2
25/03:30pm 24.6 26.6 23.9 96 0.5 S 20 30 11 16 1008.5 1008.4 10.4
25/03:00pm 25.3 26.9 23.2 88 1.4 SE 20 28 11 15 1008.9 1008.8 0.6
25/02:30pm 28.4 33.3 24.6 80 2.7 WNW 7 17 4 9 1008.9 1008.8 0.0
25/02:00pm 29.9 35.6 25.6 78 3.0 WNW 6 17 3 9 1009.0 1008.9 0.0
25/01:30pm 30.8 35.9 26.1 76 3.4 NW 11 22 6 12 1009.0 1008.9 0.0
25/01:00pm 29.9 36.0 26.5 82 2.4 NNW 7 13 4 7 1009.1 1009.0 0.0
25/12:30pm 28.1 32.4 24.9 83 2.2 NNW 11 24 6 13 1009.5 1009.4 0.0
25/12:00pm 30.7 36.8 27.1 81 2.6 NW 9 19 5 10 1009.8 1009.7 0.0
25/11:30am 29.3 33.2 24.8 77 3.2 NW 13 24 7 13 1010.2 1010.1 0.0
25/11:00am 29.9 34.8 25.9 79 2.8 NW 11 20 6 11 1010.7 1010.6 0.0
25/10:30am 30.1 35.0 25.8 78 3.1 NW 11 20 6 11 1010.9 1010.8 0.0
25/10:00am 31.6 37.3 26.4 74 3.7 NW 9 19 5 10 1010.8 1010.7 0.0
25/09:30am 29.6 35.3 26.4 83 2.3 NW 9 17 5 9 1010.4 1010.3 0.0
25/09:00am 29.3 35.3 26.1 83 2.3 NW 6 11 3 6 1010.1 1010.0 27.8
25/08:30am 28.9 34.9 26.1 85 2.0 W 6 13 3 7 1010.0 1009.9 27.8
25/08:00am 28.5 35.2 26.5 89 1.4 WNW 4 7 2 4 1009.8 1009.7 27.8
25/07:30am 27.6 33.7 26.5 94 0.8 NW 7 15 4 8 1009.3 1009.2 27.8
25/07:00am 26.6 32.6 26.1 97 0.4 NNW 6 11 3 6 1008.8 1008.7 27.8
25/06:30am 25.7 31.1 25.2 97 0.3 NNW 6 9 3 5 1008.0 1007.9 27.4
25/06:00am 25.2 30.6 24.5 96 0.5 NW 4 6 2 3 1007.9 1007.8 27.4
25/05:30am 25.1 31.1 24.2 95 0.6 CALM 0 0 0 0 1007.7 1007.6 27.4
25/05:00am 25.1 31.0 24.1 94 0.7 CALM 0 4 0 2 1008.2 1008.1 27.4
25/04:30am 25.6 31.4 24.6 94 0.7 NNW 2 4 1 2 1008.4 1008.3 27.4
25/04:00am 26.0 32.0 24.8 93 0.8 WNW 2 6 1 3 1008.5 1008.4 27.4
25/03:30am 25.3 30.6 24.4 95 0.6 NNW 4 7 2 4 1007.9 1007.8 27.4
25/03:00am 25.0 29.5 24.0 94 0.7 NNW 7 13 4 7 1007.6 1007.5 27.4
25/02:30am 25.0 28.8 24.0 94 0.7 NNW 11 24 6 13 1008.4 1008.3 27.4
25/02:00am 24.8 29.6 24.1 96 0.5 N 6 13 3 7 1008.9 1008.8 27.4
25/01:30am 24.7 29.8 24.0 96 0.5 NNE 4 7 2 4 1009.1 1009.0 27.4
25/01:00am 24.9 30.1 24.2 96 0.5 NE 4 7 2 4 1009.2 1009.1 27.4
25/12:30am 24.9 30.0 24.0 95 0.6 N 4 6 2 3 1009.7 1009.6 27.4
25/12:00am 25.3 30.4 24.1 93 0.8 W 4 9 2 5 1009.8 1009.7 27.4
 
Date/Time
CST
Tmp

°C
App
Tmp
°C
Dew
Point
°C
Rel
Hum
%
Delta-T

°C
Wind Press
QNH
hPa
Press
MSL
hPa
Rain
since
9 am
mm
Dir
 
Spd
km/h
Gust
km/h
Spd
kts
Gust
kts
24/11:30pm 25.4 30.8 24.5 95 0.6 WNW 4 9 2 5 1009.7 1009.6 27.4
24/11:00pm 25.0 30.6 24.3 96 0.5 N 2 4 1 2 1009.5 1009.4 27.4
24/10:30pm 25.0 29.9 24.3 96 0.5 NNW 6 9 3 5 1009.9 1009.8 27.4
24/10:00pm 25.1 31.2 24.4 96 0.5 CALM 0 0 0 0 1009.4 1009.3 27.4
24/09:30pm 25.1 30.0 24.4 96 0.5 SW 6 17 3 9 1009.5 1009.4 26.2
24/09:00pm 24.9 30.7 23.9 94 0.7 CALM 0 4 0 2 1009.1 1009.0 21.0
24/08:30pm 24.9 30.1 23.5 92 1.0 N 2 6 1 3 1009.1 1009.0 19.2
24/08:00pm 26.0 30.1 23.9 88 1.4 NNW 9 17 5 9 1008.9 1008.8 17.4
24/07:30pm 25.4 29.6 22.5 84 2.0 NNE 4 19 2 10 1008.7 1008.6 17.4
24/07:00pm 26.5 32.0 24.7 90 1.3 N 4 9 2 5 1007.9 1007.8 17.4
24/06:30pm 26.7 32.8 25.1 91 1.1 NNE 2 6 1 3 1007.7 1007.6 17.4
24/06:00pm 26.6 32.4 24.6 89 1.4 SW 2 4 1 2 1006.9 1006.8 17.4
24/05:30pm 26.1 30.9 24.1 89 1.4 W 6 11 3 6 1006.4 1006.3 17.4
24/05:00pm 26.0 31.6 24.8 93 0.8 W 4 9 2 5 1006.3 1006.2 17.2
24/04:30pm 26.1 32.9 25.6 97 0.4 CALM 0 9 0 5 1006.3 1006.2 17.2
24/04:00pm 25.1 31.2 24.4 96 0.5 CALM 0 0 0 0 1006.4 1006.3 17.0
24/03:30pm 25.3 27.6 24.1 93 0.8 SSW 19 32 10 17 1007.3 1007.2 10.4
24/03:00pm 28.1 32.9 24.5 81 2.5 SSE 7 11 4 6 1006.9 1006.8 0.4
24/02:30pm 28.6 34.4 25.8 85 2.0 SW 6 9 3 5 1007.2 1007.1 0.4
24/02:00pm 27.0 32.8 24.5 86 1.7 ENE 2 7 1 4 1007.4 1007.3 0.4
24/01:30pm 26.5 31.7 24.2 87 1.6 NE 4 6 2 3 1007.4 1007.3 0.4
24/01:00pm 26.0 29.9 22.5 81 2.4 W 6 9 3 5 1007.8 1007.7 0.4
24/12:30pm 26.8 30.3 21.8 74 3.3 W 6 11 3 6 1007.8 1007.7 0.4
24/12:00pm 28.0 33.6 24.8 83 2.2 WNW 4 9 2 5 1008.2 1008.1 0.4
24/11:30am 27.9 33.5 24.9 84 2.1 W 4 7 2 4 1008.1 1008.0 0.4
24/11:00am 28.1 33.2 25.5 86 1.8 SSW 9 15 5 8 1008.4 1008.3 0.4
24/10:30am 29.2 35.5 26.0 83 2.3 W 4 7 2 4 1008.5 1008.4 0.0
24/10:00am 29.4 36.1 26.0 82 2.4 WNW 2 6 1 3 1008.8 1008.7 0.0
24/09:30am 29.4 36.0 25.8 81 2.6 WNW 2 6 1 3 1009.1 1009.0 0.0
24/09:00am 29.1 35.9 26.1 84 2.1 NW 2 7 1 4 1008.5 1008.4 8.8
24/08:30am 28.1 34.8 25.9 88 1.6 NNW 2 6 1 3 1008.2 1008.1 8.8
24/08:00am 27.9 34.2 25.3 86 1.8 WSW 2 7 1 4 1007.7 1007.6 8.8
24/07:30am 27.9 33.7 25.1 85 2.0 SW 4 9 2 5 1007.3 1007.2 8.8
24/07:00am 28.1 33.5 25.1 84 2.1 W 6 11 3 6 1007.2 1007.1 8.8
24/06:30am 28.1 33.4 24.9 83 2.2 W 6 11 3 6 1007.0 1006.9 8.8
24/06:00am 28.1 33.0 24.7 82 2.4 WSW 7 17 4 9 1006.3 1006.2 8.8
24/05:30am 28.2 32.9 25.0 83 2.2 WSW 9 17 5 9 1006.1 1006.0 8.8
24/05:00am 28.0 33.1 25.0 84 2.1 SW 7 13 4 7 1006.0 1005.9 8.8
24/04:30am 28.0 32.7 25.0 84 2.1 WSW 9 17 5 9 1005.7 1005.6 8.8
24/04:00am 27.9 32.3 25.1 85 2.0 WSW 11 26 6 14 1005.2 1005.1 8.8
24/03:30am 28.1 32.1 25.1 84 2.1 WSW 13 26 7 14 1005.5 1005.4 8.8
24/03:00am 27.8 32.7 25.2 86 1.8 WSW 9 19 5 10 1005.4 1005.3 8.8
24/02:30am 28.0 32.7 25.6 87 1.7 WSW 11 28 6 15 1005.4 1005.3 8.6
24/02:00am 27.9 33.6 25.9 89 1.4 WSW 7 17 4 9 1005.7 1005.6 8.6
24/01:30am 27.7 33.3 25.7 89 1.4 WSW 7 15 4 8 1006.6 1006.5 8.6
24/01:00am 27.8 33.2 26.0 90 1.3 W 9 19 5 10 1007.1 1007.0 8.6
24/12:30am 27.9 33.6 25.9 89 1.4 W 7 17 4 9 1007.2 1007.1 8.4
24/12:00am 27.6 33.6 26.0 91 1.1 WNW 6 19 3 10 1007.7 1007.6 8.4
 
Date/Time
CST
Tmp

°C
App
Tmp
°C
Dew
Point
°C
Rel
Hum
%
Delta-T

°C
Wind Press
QNH
hPa
Press
MSL
hPa
Rain
since
9 am
mm
Dir
 
Spd
km/h
Gust
km/h
Spd
kts
Gust
kts
23/11:30pm 27.5 33.4 25.9 91 1.1 WSW 6 17 3 9 1007.6 1007.5 8.4
23/11:00pm 27.7 33.6 25.9 90 1.3 WNW 6 11 3 6 1007.8 1007.7 8.0
23/10:30pm 27.5 33.3 26.1 92 1.0 W 7 15 4 8 1007.1 1007.0 8.0
23/10:00pm 27.1 33.4 25.9 93 0.8 WSW 4 7 2 4 1007.3 1007.2 8.0
23/09:30pm 27.0 33.0 26.1 95 0.6 W 6 17 3 9 1006.2 1006.1 7.6
23/09:00pm 26.5 31.2 25.6 95 0.6 W 11 20 6 11 1005.7 1005.6 7.6
23/08:30pm 26.0 31.4 25.1 95 0.6 W 6 9 3 5 1006.1 1006.0 7.6
23/08:00pm 25.9 32.0 25.0 95 0.6 WSW 2 4 1 2 1006.5 1006.4 7.2
23/07:30pm 25.9 31.9 24.9 94 0.7 SE 2 4 1 2 1006.9 1006.8 6.4
23/07:00pm 25.7 31.6 24.7 94 0.7 N 2 4 1 2 1006.9 1006.8 6.0
23/06:30pm 25.7 30.8 24.7 94 0.7 NW 6 13 3 7 1006.9 1006.8 5.6
23/06:00pm 25.6 30.3 24.0 91 1.1 W 6 20 3 11 1006.8 1006.7 4.8
23/05:30pm 25.7 30.3 24.1 91 1.1 WNW 7 17 4 9 1006.4 1006.3 4.6
23/05:00pm 25.7 30.8 24.1 91 1.1 W 4 7 2 4 1005.9 1005.8 4.6
23/04:30pm 25.6 30.2 24.2 92 1.0 W 7 17 4 9 1005.4 1005.3 4.4
23/04:00pm 25.9 30.5 24.1 90 1.2 W 7 13 4 7 1005.0 1004.9 4.2
23/03:30pm 28.2 31.0 23.6 76 3.2 WNW 15 28 8 15 1004.7 1004.6 2.8
23/03:00pm 28.4 32.8 24.4 79 2.8 WNW 9 30 5 16 1004.7 1004.6 2.8
23/02:30pm 28.6 34.8 25.8 85 2.0 NW 4 15 2 8 1004.7 1004.6 2.6
23/02:00pm 28.6 34.8 26.4 88 1.6 W 6 13 3 7 1005.0 1004.9 2.4
23/01:30pm 29.0 33.9 25.2 80 2.7 WSW 9 22 5 12 1005.8 1005.7 0.8
23/01:00pm 30.5 35.3 25.1 73 3.8 WNW 9 24 5 13 1006.2 1006.1 0.2
23/12:30pm 30.6 34.2 25.0 72 3.9 W 15 32 8 17 1006.2 1006.1 0.2
23/12:00pm 30.0 34.0 25.1 75 3.5 WNW 13 28 7 15 1006.0 1005.9 0.2
23/11:30am 30.5 35.6 25.6 75 3.5 WNW 9 20 5 11 1006.3 1006.2 0.2
23/11:00am 29.5 35.5 25.5 79 2.8 W 4 13 2 7 1006.5 1006.4 0.2
23/10:30am 29.6 33.6 25.1 77 3.2 WSW 13 28 7 15 1007.4 1007.3 0.2
23/10:00am 28.9 33.0 25.7 83 2.3 WSW 15 33 8 18 1007.6 1007.5 0.2
23/09:30am 29.7 34.1 25.7 79 2.8 W 13 28 7 15 1007.4 1007.3 0.0
23/09:00am 29.5 33.4 25.5 79 2.8 W 15 32 8 17 1007.5 1007.4 0.4
23/08:30am 29.3 34.0 26.1 83 2.3 WNW 13 24 7 13 1007.1 1007.0 0.4
23/08:00am 29.0 34.3 25.8 83 2.3 W 9 26 5 14 1007.4 1007.3 0.4
23/07:30am 28.7 33.9 25.7 84 2.1 W 9 17 5 9 1006.8 1006.7 0.4
23/07:00am 28.6 33.7 25.6 84 2.1 WNW 9 20 5 11 1006.1 1006.0 0.4
23/06:30am 28.4 33.4 25.4 84 2.1 WNW 9 26 5 14 1005.5 1005.4 0.4
23/06:00am 28.4 32.6 25.4 84 2.1 NW 13 30 7 16 1005.3 1005.2 0.4
23/05:30am 28.3 33.0 25.5 85 2.0 WNW 11 22 6 12 1005.4 1005.3 0.4
23/05:00am 28.5 33.7 25.7 85 2.0 WNW 9 19 5 10 1005.6 1005.5 0.4
23/04:30am 28.4 33.5 25.6 85 2.0 WNW 9 20 5 11 1006.0 1005.9 0.4
23/04:00am 28.1 33.2 25.5 86 1.8 W 9 17 5 9 1006.0 1005.9 0.4
23/03:30am 27.8 32.9 25.6 88 1.6 WNW 9 17 5 9 1005.8 1005.7 0.4
23/03:00am 28.4 33.1 25.6 85 2.0 WNW 11 22 6 12 1005.6 1005.5 0.0
23/02:30am 28.5 33.6 25.5 84 2.1 WNW 9 20 5 11 1005.6 1005.5 0.0
23/02:00am 28.5 33.6 25.5 84 2.1 WNW 9 19 5 10 1006.0 1005.9 0.0
23/01:30am 28.6 33.7 25.6 84 2.1 WNW 9 20 5 11 1006.3 1006.2 0.0
23/01:00am 28.6 33.7 25.6 84 2.1 WNW 9 20 5 11 1006.5 1006.4 0.0
23/12:30am 28.6 33.7 25.6 84 2.1 WNW 9 22 5 12 1006.8 1006.7 0.0
23/12:00am 28.6 33.5 25.2 82 2.4 WNW 9 20 5 11 1006.9 1006.8 0.0
 
Date/Time
CST
Tmp

°C
App
Tmp
°C
Dew
Point
°C
Rel
Hum
%
Delta-T

°C
Wind Press
QNH
hPa
Press
MSL
hPa
Rain
since
9 am
mm
Dir
 
Spd
km/h
Gust
km/h
Spd
kts
Gust
kts
22/11:30pm 28.7 33.8 25.5 83 2.3 WNW 9 19 5 10 1007.2 1007.1 0.0
22/11:00pm 28.7 33.3 25.3 82 2.4 WNW 11 26 6 14 1007.5 1007.4 0.0
22/10:30pm 28.7 34.1 25.5 83 2.3 WNW 7 13 4 7 1007.4 1007.3 0.0
22/10:00pm 28.7 34.0 25.3 82 2.4 WNW 7 20 4 11 1007.3 1007.2 0.0
22/09:30pm 28.6 33.3 25.0 81 2.5 WNW 9 19 5 10 1007.2 1007.1 0.0
22/09:00pm 28.6 33.9 25.2 82 2.4 WNW 7 17 4 9 1007.2 1007.1 0.0
22/08:30pm 28.7 33.4 24.9 80 2.7 WNW 9 19 5 10 1007.2 1007.1 0.0
22/08:00pm 28.7 33.4 24.9 80 2.7 WNW 9 20 5 11 1006.6 1006.5 0.0

Latest Capital City Observations: Canberra | Sydney | Melbourne | Brisbane | Adelaide | Perth | Hobart | Darwin

Other Formats:

Comma delimited format used in spreadsheet applications
http://www.bom.gov.au/fwo/IDD60901/IDD60901.94119.axf

JavaScript Object Notation format (JSON) in row-major order
http://www.bom.gov.au/fwo/IDD60901/IDD60901.94119.json